Friendship, Maine
Current Conditions -  °F | °C
As of 9:15 AM on Wednesday 28 Jan 2015 (Local Time) from KRKD Reporting Station
Overcast Overcast  
Wind Chill:   Ceiling: 4200
Heat Index: 18°   Visibility: 10mi
Dew Point:   Wind: 8mph
Humidity: 68%   Direction: 340°NNW
Pressure: 29.81"   Gusts: 21mph
Location:  43.98°N, 69.33°W
Report Text: KRKD 281415Z AUTO 34007G18KT 310V010 10SM OVC042 M08/M13 A2981 RMK AO1
Loading
Personal Weather Stations






























Interactive Weather Map New forecast layout! Learn more

10-Day Weather Forecast

Advertisements
Track Severe Weather on mobile